Svendsen Senior — LK2937 — position and weather

sailwx.info

Track history (hours):
 
Tides and Currents Weather Stations Pressure Air Temp Water Temp Dewpoint Dewpoint Depression Visibility Wind Speed Wind Dir Waves Ship Positions

Svendsen Senior

Last reported at 2017-Dec-17 21:25 UTC. Time now 2017-Dec-17 21:55 UTC.
Position N 67°08' E 013°58'.

Length 15 m.

Type: Fishing. MMSI: 257142520.

Date/timePositionNaut miles runAvg speedWind from/ knotsBaromVisibWave heightAir tempDewpointWater temp
2017-Dec-17 21:25N 67°08' E 013°58'0 0.0
2017-Dec-17 20:55N 67°08' E 013°58'0 0.0
2017-Dec-17 20:25N 67°08' E 013°58'0 0.0
2017-Dec-17 19:55N 67°08' E 013°58'0 0.0
2017-Dec-17 19:19N 67°08' E 013°58'0 0.0
2017-Dec-17 18:49N 67°08' E 013°58'0 0.0
2017-Dec-17 18:25N 67°08' E 013°58'0 0.0
2017-Dec-17 17:55N 67°08' E 013°58'0 0.0
2017-Dec-17 16:19N 67°08' E 013°58'0 0.0
2017-Dec-17 15:52N 67°08' E 013°58'0 0.0
2017-Dec-17 15:24N 67°08' E 013°58'0 0.8
2017-Dec-17 15:00N 67°07' E 013°57'2 3.9
2017-Dec-17 14:30N 67°08' E 013°52'0 0.3
2017-Dec-17 13:55N 67°08' E 013°52'2 5.4
2017-Dec-17 13:30N 67°07' E 013°46'1 1.3
2017-Dec-17 13:00N 67°07' E 013°45'0 0.9
2017-Dec-17 12:30N 67°07' E 013°46'4 7.6
2017-Dec-17 12:00N 67°09' E 013°54'4 7.2
2017-Dec-17 11:31N 67°12' E 014°00'2 3.6
2017-Dec-17 11:00N 67°13' E 014°04'0 0.4
2017-Dec-17 10:22N 67°13' E 014°04'1 3.3
2017-Dec-17 10:00N 67°12' E 014°03'1 2.9
2017-Dec-17 09:30N 67°10' E 014°01'0 0.3
2017-Dec-17 08:53N 67°11' E 014°01'1 1.6
2017-Dec-17 08:28N 67°10' E 014°02'0 0.1
2017-Dec-17 07:52N 67°10' E 014°02'0 0.2
2017-Dec-17 07:30N 67°10' E 014°02'3 1.1
2017-Dec-17 04:56N 67°08' E 013°58'0 0.0
2017-Dec-16 19:14N 67°08' E 013°58'0 0.0
2017-Dec-16 18:56N 67°08' E 013°58'0 0.0
2017-Dec-16 18:29N 67°08' E 013°58'0 0.0
2017-Dec-16 17:54N 67°08' E 013°58'2 4.4
2017-Dec-16 17:29N 67°08' E 013°53'3 1.3
2017-Dec-16 15:01N 67°10' E 013°46'0 6.9
2017-Dec-16 14:59N 67°10' E 013°46'3 7.4
2017-Dec-16 14:30N 67°07' E 013°46'0 0.2
2017-Dec-16 13:59N 67°07' E 013°45'0 0.3
2017-Dec-16 13:27N 67°07' E 013°45'3 6.3
2017-Dec-16 13:00N 67°08' E 013°52'0 0.1
2017-Dec-16 12:29N 67°08' E 013°52'2 4.3
2017-Dec-16 12:00N 67°09' E 013°55'4 7.6
2017-Dec-16 11:31N 67°12' E 014°02'1 2.4
2017-Dec-16 11:00N 67°13' E 014°05'0 0.3
2017-Dec-16 10:26N 67°13' E 014°04'0 0.4
2017-Dec-16 10:00N 67°13' E 014°04'0 0.7
2017-Dec-16 09:31N 67°12' E 014°03'2 2.1
2017-Dec-16 08:28N 67°10' E 014°01'1 1.0
2017-Dec-16 07:53N 67°10' E 014°02'0 0.1
2017-Dec-16 07:30N 67°10' E 014°02'2 4.6
2017-Dec-16 07:00N 67°08' E 013°59'1 0.1
2017-Dec-15 16:42N 67°08' E 013°58'1 5.7
2017-Dec-15 16:30N 67°07' E 013°55'4 7.4
2017-Dec-15 15:59N 67°07' E 013°45'0 0.1
2017-Dec-15 14:51N 67°07' E 013°45'2 6.5
2017-Dec-15 14:30N 67°08' E 013°50'1 0.9
2017-Dec-15 13:48N 67°08' E 013°52'0 0.2
2017-Dec-15 13:17N 67°08' E 013°52'2 7.9
2017-Dec-15 13:00N 67°09' E 013°56'2 4.2
2017-Dec-15 12:27N 67°10' E 014°01'0 0.3
2017-Dec-15 11:51N 67°10' E 014°01'0 0.3
2017-Dec-15 11:27N 67°11' E 014°02'2 5.4
2017-Dec-15 11:00N 67°13' E 014°04'0 0.6
2017-Dec-15 10:30N 67°13' E 014°04'0 0.2
2017-Dec-15 10:00N 67°13' E 014°04'0 0.1
2017-Dec-15 09:23N 67°13' E 014°04'0 0.4
2017-Dec-15 09:01N 67°13' E 014°04'3 5.4
2017-Dec-15 08:30N 67°10' E 014°03'0 0.6
2017-Dec-15 07:59N 67°10' E 014°02'0 0.1
2017-Dec-15 07:31N 67°10' E 014°02'3 5.3
2017-Dec-15 07:00N 67°08' E 013°58'1 0.1
2017-Dec-14 18:29N 67°07' E 013°56'4 7.5
2017-Dec-14 18:00N 67°07' E 013°47'1 1.0
2017-Dec-14 17:09N 67°07' E 013°45'0 0.3
2017-Dec-14 16:53N 67°07' E 013°46'2 5.4
2017-Dec-14 16:31N 67°08' E 013°50'1 1.1
2017-Dec-14 15:54N 67°08' E 013°52'7 7.8
2017-Dec-14 15:00N 67°12' E 014°06'4 8.5
2017-Dec-14 14:30N 67°15' E 014°15'4 7.1
2017-Dec-14 13:59N 67°17' E 014°22'0 0.0
2017-Dec-14 13:30N 67°17' E 014°22'0 0.0
2017-Dec-14 12:59N 67°17' E 014°22'0 0.0
2017-Dec-14 12:30N 67°17' E 014°22'0 0.1
2017-Dec-14 11:59N 67°17' E 014°22'0 0.0
2017-Dec-14 11:29N 67°17' E 014°22'3 5.5
2017-Dec-14 11:00N 67°16' E 014°17'4 7.9
2017-Dec-14 10:30N 67°14' E 014°08'2 2.8
2017-Dec-14 09:58N 67°13' E 014°04'0 0.3
2017-Dec-14 09:31N 67°13' E 014°04'0 0.5
2017-Dec-14 09:00N 67°13' E 014°04'3 5.5
2017-Dec-14 08:30N 67°10' E 014°01'0 0.8
2017-Dec-14 07:59N 67°10' E 013°60'1 2.0
2017-Dec-14 07:28N 67°10' E 014°02'0 0.3
2017-Dec-14 06:58N 67°10' E 014°03'3 5.9
2017-Dec-14 06:30N 67°08' E 013°59'0 0.1
2017-Dec-14 03:16N 67°08' E 013°58'0 0.0
2017-Dec-14 02:52N 67°08' E 013°58'0 0.0
2017-Dec-14 02:28N 67°08' E 013°58'0 0.0
2017-Dec-14 01:58N 67°08' E 013°58'0 0.0
2017-Dec-14 01:22N 67°08' E 013°58'0 0.0
2017-Dec-14 00:58N 67°08' E 013°58'0 0.0
2017-Dec-14 00:28N 67°08' E 013°58'0 0.0
2017-Dec-13 23:58N 67°08' E 013°58'0 0.0
2017-Dec-13 23:28N 67°08' E 013°58'0 0.0
2017-Dec-13 22:40N 67°08' E 013°58'0 0.0
2017-Dec-13 22:16N 67°08' E 013°58'0 0.0
2017-Dec-13 21:58N 67°08' E 013°58'0 0.0
2017-Dec-13 21:28N 67°08' E 013°58'0 0.0
2017-Dec-13 20:58N 67°08' E 013°58'0 0.0
2017-Dec-13 20:28N 67°08' E 013°58'0 0.0
2017-Dec-13 19:58N 67°08' E 013°58'0 0.0
2017-Dec-13 19:28N 67°08' E 013°58'0 0.0
2017-Dec-13 18:58N 67°08' E 013°58'0 0.0
2017-Dec-13 18:28N 67°08' E 013°58'0 0.0
2017-Dec-13 17:58N 67°08' E 013°58'0 0.0
2017-Dec-13 17:16N 67°08' E 013°58'0 0.0
2017-Dec-13 14:07N 67°08' E 013°58'1 6.4
2017-Dec-13 14:00N 67°07' E 013°56'4 7.6
2017-Dec-13 13:30N 67°07' E 013°47'1 0.7
2017-Dec-13 12:40N 67°07' E 013°45'1 4.5
2017-Dec-13 12:30N 67°07' E 013°47'2 2.1
2017-Dec-13 11:34N 67°08' E 013°52'0 6.6
2017-Dec-13 11:30N 67°08' E 013°52'4 7.3
2017-Dec-13 11:00N 67°10' E 013°60'1 1.2
2017-Dec-13 10:28N 67°10' E 014°01'1 1.3
2017-Dec-13 10:00N 67°10' E 014°02'0 0.5
2017-Dec-13 09:29N 67°10' E 014°03'3 5.7
2017-Dec-13 09:00N 67°13' E 014°04'0 0.5
2017-Dec-13 08:30N 67°13' E 014°04'0 0.6
2017-Dec-13 08:01N 67°13' E 014°04'3 6.4
2017-Dec-13 07:30N 67°10' E 014°02'2 3.9
2017-Dec-13 07:00N 67°08' E 013°59'1 1.0
2017-Dec-13 06:30N 67°08' E 013°58'0 0.0
2017-Dec-13 06:00N 67°08' E 013°58'0 0.0
2017-Dec-13 05:30N 67°08' E 013°58'0 0.0
2017-Dec-13 05:00N 67°08' E 013°58'0 0.0
2017-Dec-13 04:30N 67°08' E 013°58'0 0.0
2017-Dec-13 04:00N 67°08' E 013°58'0 0.0
2017-Dec-12 18:54N 67°08' E 013°58'0 0.0
2017-Dec-12 18:12N 67°08' E 013°58'0 0.0
2017-Dec-12 17:54N 67°08' E 013°58'0 0.0
2017-Dec-12 17:24N 67°08' E 013°58'0 0.0
2017-Dec-12 16:54N 67°08' E 013°58'0 0.0
2017-Dec-12 16:30N 67°08' E 013°58'0 0.7
2017-Dec-12 16:00N 67°07' E 013°57'4 7.0
2017-Dec-12 15:25N 67°10' E 013°49'2 0.9
2017-Dec-12 13:41N 67°09' E 013°45'1 7.5
2017-Dec-12 13:30N 67°08' E 013°45'1 1.5
2017-Dec-12 12:46N 67°07' E 013°45'2 6.0
2017-Dec-12 12:30N 67°07' E 013°49'1 2.1
2017-Dec-12 11:55N 67°08' E 013°52'0 0.2
2017-Dec-12 11:28N 67°08' E 013°52'3 7.3
2017-Dec-12 11:01N 67°10' E 013°59'1 2.5
2017-Dec-12 10:26N 67°10' E 014°02'0 0.7
2017-Dec-12 10:00N 67°10' E 014°02'0 0.7
2017-Dec-12 09:29N 67°10' E 014°01'1 3.0
2017-Dec-12 09:00N 67°12' E 014°03'1 1.3
2017-Dec-12 08:13N 67°13' E 014°04'0 0.3
2017-Dec-12 07:52N 67°13' E 014°04'0 0.2
2017-Dec-12 07:31N 67°13' E 014°04'4 7.2
2017-Dec-12 07:00N 67°09' E 014°01'2 0.1
2017-Dec-11 17:03N 67°08' E 013°58'0 4.2
2017-Dec-11 17:00N 67°08' E 013°58'2 2.3
2017-Dec-11 16:05N 67°06' E 014°00'1 7.3
2017-Dec-11 16:00N 67°06' E 013°59'4 8.0
2017-Dec-11 15:30N 67°06' E 013°49'1 1.2
2017-Dec-11 14:29N 67°07' E 013°46'3 4.8
2017-Dec-11 13:57N 67°08' E 013°52'0 0.3
2017-Dec-11 13:27N 67°08' E 013°52'3 7.0
2017-Dec-11 13:00N 67°10' E 013°58'2 3.0
2017-Dec-11 12:27N 67°10' E 014°02'0 1.1
2017-Dec-11 12:00N 67°10' E 014°02'0 0.4
2017-Dec-11 11:25N 67°10' E 014°01'0 0.5
2017-Dec-11 11:00N 67°11' E 014°01'1 2.6
2017-Dec-11 10:30N 67°12' E 014°02'2 3.4
2017-Dec-11 09:56N 67°11' E 013°58'0 0.1
2017-Dec-11 09:30N 67°11' E 013°58'4 7.6
2017-Dec-11 09:00N 67°13' E 014°07'4 8.4
2017-Dec-11 08:30N 67°15' E 014°15'3 6.2
2017-Dec-11 07:59N 67°17' E 014°22'0 0.0
2017-Dec-11 07:29N 67°17' E 014°22'0 0.0
2017-Dec-11 06:59N 67°17' E 014°22'1 3.0
2017-Dec-11 06:30N 67°16' E 014°19'4 7.9
2017-Dec-11 06:00N 67°14' E 014°11'4 8.6
2017-Dec-11 05:30N 67°10' E 014°04'4 2.3
2017-Dec-11 03:54N 67°08' E 013°58'0 0.0
2017-Dec-11 03:30N 67°08' E 013°58'0 0.0
2017-Dec-11 03:00N 67°08' E 013°58'0 0.0
2017-Dec-11 02:30N 67°08' E 013°58'0 0.0
2017-Dec-10 16:12N 67°08' E 013°58'0 0.0
2017-Dec-10 13:52N 67°08' E 013°58'2 6.1
2017-Dec-10 13:30N 67°08' E 013°52'2 2.8
2017-Dec-10 12:38N 67°07' E 013°46'0 3.8
2017-Dec-10 12:30N 67°07' E 013°47'2 2.9
2017-Dec-10 11:48N 67°08' E 013°52'2 5.3
2017-Dec-10 11:30N 67°09' E 013°55'3 6.1
2017-Dec-10 11:00N 67°10' E 014°02'0 0.5
2017-Dec-10 10:29N 67°10' E 014°03'1 1.1
2017-Dec-10 09:55N 67°10' E 014°01'0 0.2
2017-Dec-10 09:29N 67°11' E 014°01'1 2.1
2017-Dec-10 09:00N 67°12' E 014°01'1 2.9
2017-Dec-10 08:29N 67°13' E 014°04'0 0.2
2017-Dec-10 07:56N 67°12' E 014°04'0 0.1
2017-Dec-10 07:30N 67°12' E 014°04'4 8.5
2017-Dec-10 07:00N 67°09' E 014°00'1 2.4
2017-Dec-10 06:29N 67°08' E 013°58'0 0.0
2017-Dec-10 02:26N 67°08' E 013°58'0 0.0
2017-Dec-09 18:53N 67°08' E 013°58'0 0.0
2017-Dec-09 18:29N 67°08' E 013°58'0 0.0
2017-Dec-09 17:59N 67°08' E 013°58'0 0.0
2017-Dec-09 14:37N 67°08' E 013°58'1 3.0
2017-Dec-09 14:25N 67°08' E 013°58'2 4.8
2017-Dec-09 14:00N 67°07' E 013°54'3 5.9
2017-Dec-09 13:26N 67°07' E 013°46'0 0.3
2017-Dec-09 12:58N 67°07' E 013°46'2 4.3
2017-Dec-09 12:23N 67°08' E 013°51'0 0.3
2017-Dec-09 11:55N 67°08' E 013°52'3 7.0
2017-Dec-09 11:29N 67°10' E 013°57'2 3.5
2017-Dec-09 10:57N 67°10' E 014°02'0 0.3
2017-Dec-09 10:31N 67°10' E 014°02'1 1.1
2017-Dec-09 09:59N 67°10' E 014°01'1 2.8
2017-Dec-09 09:30N 67°12' E 014°03'1 1.3
2017-Dec-09 09:01N 67°12' E 014°01'2 1.3
2017-Dec-09 07:48N 67°11' E 013°58'0 1.0
2017-Dec-09 07:30N 67°10' E 013°58'3 5.3
2017-Dec-09 07:00N 67°08' E 013°58'0 0.2
2017-Dec-09 06:30N 67°08' E 013°58'0 0.0
2017-Dec-09 06:00N 67°08' E 013°58'0 0.0
2017-Dec-09 04:39N 67°08' E 013°58'0 0.0
2017-Dec-09 04:18N 67°08' E 013°58'0 0.0
2017-Dec-09 03:48N 67°08' E 013°58'0 0.0
2017-Dec-09 03:24N 67°08' E 013°58'0 0.0
2017-Dec-09 02:54N 67°08' E 013°58'0 0.0
2017-Dec-09 02:06N 67°08' E 013°58'0 0.0
2017-Dec-09 02:00N 67°08' E 013°58'0 0.0
2017-Dec-09 01:30N 67°08' E 013°58'0 0.0
2017-Dec-09 01:00N 67°08' E 013°58'0 0.0
2017-Dec-09 00:24N 67°08' E 013°58'0 0.0
2017-Dec-09 00:00N 67°08' E 013°58'0 0.0
2017-Dec-08 23:24N 67°08' E 013°58'0 0.0
2017-Dec-08 23:00N 67°08' E 013°58'0 0.0
2017-Dec-08 22:30N 67°08' E 013°58'0 0.0
2017-Dec-08 22:00N 67°08' E 013°58'0 0.0
2017-Dec-08 21:30N 67°08' E 013°58'0 0.0
2017-Dec-08 21:00N 67°08' E 013°58'0 0.0
2017-Dec-08 20:30N 67°08' E 013°58'0 0.0
2017-Dec-08 19:48N 67°08' E 013°58'0 0.0
2017-Dec-08 19:30N 67°08' E 013°58'0 0.0
2017-Dec-08 19:00N 67°08' E 013°58'0 0.0
2017-Dec-08 18:30N 67°08' E 013°58'0 0.0
2017-Dec-08 18:00N 67°08' E 013°58'1 1.1
2017-Dec-08 17:22N 67°08' E 013°59'2 3.8
2017-Dec-08 16:49N 67°06' E 014°01'2 6.6
2017-Dec-08 16:30N 67°06' E 013°55'4 7.8
2017-Dec-08 16:00N 67°07' E 013°46'0 0.4
2017-Dec-08 15:27N 67°07' E 013°46'2 5.4
2017-Dec-08 15:00N 67°08' E 013°52'0 0.3
2017-Dec-08 14:27N 67°08' E 013°52'2 3.4
2017-Dec-08 13:59N 67°09' E 013°55'3 6.9
2017-Dec-08 13:31N 67°10' E 014°03'0 0.2
2017-Dec-08 12:59N 67°10' E 014°02'0 0.8
2017-Dec-08 12:24N 67°10' E 014°01'0 0.5
2017-Dec-08 12:00N 67°11' E 014°01'1 1.7
2017-Dec-08 11:27N 67°11' E 013°59'0 0.3
2017-Dec-08 10:57N 67°11' E 013°59'0 0.6
2017-Dec-08 10:30N 67°11' E 013°58'3 5.0
2017-Dec-08 10:00N 67°08' E 013°60'1 1.7
2017-Dec-08 09:26N 67°08' E 013°58'0 0.0
2017-Dec-08 08:56N 67°08' E 013°58'0 0.0
2017-Dec-08 08:26N 67°08' E 013°58'0 0.0
2017-Dec-08 07:56N 67°08' E 013°58'0 0.0
2017-Dec-08 07:26N 67°08' E 013°58'0 0.0
2017-Dec-08 06:50N 67°08' E 013°58'0 0.0
2017-Dec-08 06:26N 67°08' E 013°58'0 0.0
2017-Dec-08 05:38N 67°08' E 013°58'0 0.0
2017-Dec-08 03:23N 67°08' E 013°58'0 0.0
2017-Dec-08 02:47N 67°08' E 013°58'0 0.0
2017-Dec-07 22:32N 67°08' E 013°58'0 0.0
2017-Dec-07 21:41N 67°08' E 013°58'  
Track history (hours):
 
Tides and Currents Weather Stations Pressure Air Temp Water Temp Dewpoint Dewpoint Depression Visibility Wind Speed Wind Dir Waves Ship Positions

Svendsen Senior

Last reported at 2017-Dec-17 21:25 UTC. Time now 2017-Dec-17 21:55 UTC.
Position N 67°08' E 013°58'.

Length 15 m.

Type: Fishing. MMSI: 257142520.

Date/timePositionNaut miles runAvg speedWind from/ knotsBaromVisibWave heightAir tempDewpointWater temp
2017-Dec-17 21:25N 67°08' E 013°58'0 0.0
2017-Dec-17 20:55N 67°08' E 013°58'0 0.0
2017-Dec-17 20:25N 67°08' E 013°58'0 0.0
2017-Dec-17 19:55N 67°08' E 013°58'0 0.0
2017-Dec-17 19:19N 67°08' E 013°58'0 0.0
2017-Dec-17 18:49N 67°08' E 013°58'0 0.0
2017-Dec-17 18:25N 67°08' E 013°58'0 0.0
2017-Dec-17 17:55N 67°08' E 013°58'0 0.0
2017-Dec-17 16:19N 67°08' E 013°58'0 0.0
2017-Dec-17 15:52N 67°08' E 013°58'0 0.0
2017-Dec-17 15:24N 67°08' E 013°58'0 0.8
2017-Dec-17 15:00N 67°07' E 013°57'2 3.9
2017-Dec-17 14:30N 67°08' E 013°52'0 0.3
2017-Dec-17 13:55N 67°08' E 013°52'2 5.4
2017-Dec-17 13:30N 67°07' E 013°46'1 1.3
2017-Dec-17 13:00N 67°07' E 013°45'0 0.9
2017-Dec-17 12:30N 67°07' E 013°46'4 7.6
2017-Dec-17 12:00N 67°09' E 013°54'4 7.2
2017-Dec-17 11:31N 67°12' E 014°00'2 3.6
2017-Dec-17 11:00N 67°13' E 014°04'0 0.4
2017-Dec-17 10:22N 67°13' E 014°04'1 3.3
2017-Dec-17 10:00N 67°12' E 014°03'1 2.9
2017-Dec-17 09:30N 67°10' E 014°01'0 0.3
2017-Dec-17 08:53N 67°11' E 014°01'1 1.6
2017-Dec-17 08:28N 67°10' E 014°02'0 0.1
2017-Dec-17 07:52N 67°10' E 014°02'0 0.2
2017-Dec-17 07:30N 67°10' E 014°02'3 1.1
2017-Dec-17 04:56N 67°08' E 013°58'0 0.0
2017-Dec-16 19:14N 67°08' E 013°58'0 0.0
2017-Dec-16 18:56N 67°08' E 013°58'0 0.0
2017-Dec-16 18:29N 67°08' E 013°58'0 0.0
2017-Dec-16 17:54N 67°08' E 013°58'2 4.4
2017-Dec-16 17:29N 67°08' E 013°53'3 1.3
2017-Dec-16 15:01N 67°10' E 013°46'0 6.9
2017-Dec-16 14:59N 67°10' E 013°46'3 7.4
2017-Dec-16 14:30N 67°07' E 013°46'0 0.2
2017-Dec-16 13:59N 67°07' E 013°45'0 0.3
2017-Dec-16 13:27N 67°07' E 013°45'3 6.3
2017-Dec-16 13:00N 67°08' E 013°52'0 0.1
2017-Dec-16 12:29N 67°08' E 013°52'2 4.3
2017-Dec-16 12:00N 67°09' E 013°55'4 7.6
2017-Dec-16 11:31N 67°12' E 014°02'1 2.4
2017-Dec-16 11:00N 67°13' E 014°05'0 0.3
2017-Dec-16 10:26N 67°13' E 014°04'0 0.4
2017-Dec-16 10:00N 67°13' E 014°04'0 0.7
2017-Dec-16 09:31N 67°12' E 014°03'2 2.1
2017-Dec-16 08:28N 67°10' E 014°01'1 1.0
2017-Dec-16 07:53N 67°10' E 014°02'0 0.1
2017-Dec-16 07:30N 67°10' E 014°02'2 4.6
2017-Dec-16 07:00N 67°08' E 013°59'1 0.1
2017-Dec-15 16:42N 67°08' E 013°58'1 5.7
2017-Dec-15 16:30N 67°07' E 013°55'4 7.4
2017-Dec-15 15:59N 67°07' E 013°45'0 0.1
2017-Dec-15 14:51N 67°07' E 013°45'2 6.5
2017-Dec-15 14:30N 67°08' E 013°50'1 0.9
2017-Dec-15 13:48N 67°08' E 013°52'0 0.2
2017-Dec-15 13:17N 67°08' E 013°52'2 7.9
2017-Dec-15 13:00N 67°09' E 013°56'2 4.2
2017-Dec-15 12:27N 67°10' E 014°01'0 0.3
2017-Dec-15 11:51N 67°10' E 014°01'0 0.3
2017-Dec-15 11:27N 67°11' E 014°02'2 5.4
2017-Dec-15 11:00N 67°13' E 014°04'0 0.6
2017-Dec-15 10:30N 67°13' E 014°04'0 0.2
2017-Dec-15 10:00N 67°13' E 014°04'0 0.1
2017-Dec-15 09:23N 67°13' E 014°04'0 0.4
2017-Dec-15 09:01N 67°13' E 014°04'3 5.4
2017-Dec-15 08:30N 67°10' E 014°03'0 0.6
2017-Dec-15 07:59N 67°10' E 014°02'0 0.1
2017-Dec-15 07:31N 67°10' E 014°02'3 5.3
2017-Dec-15 07:00N 67°08' E 013°58'1 0.1
2017-Dec-14 18:29N 67°07' E 013°56'4 7.5
2017-Dec-14 18:00N 67°07' E 013°47'1 1.0
2017-Dec-14 17:09N 67°07' E 013°45'0 0.3
2017-Dec-14 16:53N 67°07' E 013°46'2 5.4
2017-Dec-14 16:31N 67°08' E 013°50'1 1.1
2017-Dec-14 15:54N 67°08' E 013°52'7 7.8
2017-Dec-14 15:00N 67°12' E 014°06'4 8.5
2017-Dec-14 14:30N 67°15' E 014°15'4 7.1
2017-Dec-14 13:59N 67°17' E 014°22'0 0.0
2017-Dec-14 13:30N 67°17' E 014°22'0 0.0
2017-Dec-14 12:59N 67°17' E 014°22'0 0.0
2017-Dec-14 12:30N 67°17' E 014°22'0 0.1
2017-Dec-14 11:59N 67°17' E 014°22'0 0.0
2017-Dec-14 11:29N 67°17' E 014°22'3 5.5
2017-Dec-14 11:00N 67°16' E 014°17'4 7.9
2017-Dec-14 10:30N 67°14' E 014°08'2 2.8
2017-Dec-14 09:58N 67°13' E 014°04'0 0.3
2017-Dec-14 09:31N 67°13' E 014°04'0 0.5
2017-Dec-14 09:00N 67°13' E 014°04'3 5.5
2017-Dec-14 08:30N 67°10' E 014°01'0 0.8
2017-Dec-14 07:59N 67°10' E 013°60'1 2.0
2017-Dec-14 07:28N 67°10' E 014°02'0 0.3
2017-Dec-14 06:58N 67°10' E 014°03'3 5.9
2017-Dec-14 06:30N 67°08' E 013°59'0 0.1
2017-Dec-14 03:16N 67°08' E 013°58'0 0.0
2017-Dec-14 02:52N 67°08' E 013°58'0 0.0
2017-Dec-14 02:28N 67°08' E 013°58'0 0.0
2017-Dec-14 01:58N 67°08' E 013°58'0 0.0
2017-Dec-14 01:22N 67°08' E 013°58'0 0.0
2017-Dec-14 00:58N 67°08' E 013°58'0 0.0
2017-Dec-14 00:28N 67°08' E 013°58'0 0.0
2017-Dec-13 23:58N 67°08' E 013°58'0 0.0
2017-Dec-13 23:28N 67°08' E 013°58'0 0.0
2017-Dec-13 22:40N 67°08' E 013°58'0 0.0
2017-Dec-13 22:16N 67°08' E 013°58'0 0.0
2017-Dec-13 21:58N 67°08' E 013°58'0 0.0
2017-Dec-13 21:28N 67°08' E 013°58'0 0.0
2017-Dec-13 20:58N 67°08' E 013°58'0 0.0
2017-Dec-13 20:28N 67°08' E 013°58'0 0.0
2017-Dec-13 19:58N 67°08' E 013°58'0 0.0
2017-Dec-13 19:28N 67°08' E 013°58'0 0.0
2017-Dec-13 18:58N 67°08' E 013°58'0 0.0
2017-Dec-13 18:28N 67°08' E 013°58'0 0.0
2017-Dec-13 17:58N 67°08' E 013°58'0 0.0
2017-Dec-13 17:16N 67°08' E 013°58'0 0.0
2017-Dec-13 14:07N 67°08' E 013°58'1 6.4
2017-Dec-13 14:00N 67°07' E 013°56'4 7.6
2017-Dec-13 13:30N 67°07' E 013°47'1 0.7
2017-Dec-13 12:40N 67°07' E 013°45'1 4.5
2017-Dec-13 12:30N 67°07' E 013°47'2 2.1
2017-Dec-13 11:34N 67°08' E 013°52'0 6.6
2017-Dec-13 11:30N 67°08' E 013°52'4 7.3
2017-Dec-13 11:00N 67°10' E 013°60'1 1.2
2017-Dec-13 10:28N 67°10' E 014°01'1 1.3
2017-Dec-13 10:00N 67°10' E 014°02'0 0.5
2017-Dec-13 09:29N 67°10' E 014°03'3 5.7
2017-Dec-13 09:00N 67°13' E 014°04'0 0.5
2017-Dec-13 08:30N 67°13' E 014°04'0 0.6
2017-Dec-13 08:01N 67°13' E 014°04'3 6.4
2017-Dec-13 07:30N 67°10' E 014°02'2 3.9
2017-Dec-13 07:00N 67°08' E 013°59'1 1.0
2017-Dec-13 06:30N 67°08' E 013°58'0 0.0
2017-Dec-13 06:00N 67°08' E 013°58'0 0.0
2017-Dec-13 05:30N 67°08' E 013°58'0 0.0
2017-Dec-13 05:00N 67°08' E 013°58'0 0.0
2017-Dec-13 04:30N 67°08' E 013°58'0 0.0
2017-Dec-13 04:00N 67°08' E 013°58'0 0.0
2017-Dec-12 18:54N 67°08' E 013°58'0 0.0
2017-Dec-12 18:12N 67°08' E 013°58'0 0.0
2017-Dec-12 17:54N 67°08' E 013°58'0 0.0
2017-Dec-12 17:24N 67°08' E 013°58'0 0.0
2017-Dec-12 16:54N 67°08' E 013°58'0 0.0
2017-Dec-12 16:30N 67°08' E 013°58'0 0.7
2017-Dec-12 16:00N 67°07' E 013°57'4 7.0
2017-Dec-12 15:25N 67°10' E 013°49'2 0.9
2017-Dec-12 13:41N 67°09' E 013°45'1 7.5
2017-Dec-12 13:30N 67°08' E 013°45'1 1.5
2017-Dec-12 12:46N 67°07' E 013°45'2 6.0
2017-Dec-12 12:30N 67°07' E 013°49'1 2.1
2017-Dec-12 11:55N 67°08' E 013°52'0 0.2
2017-Dec-12 11:28N 67°08' E 013°52'3 7.3
2017-Dec-12 11:01N 67°10' E 013°59'1 2.5
2017-Dec-12 10:26N 67°10' E 014°02'0 0.7
2017-Dec-12 10:00N 67°10' E 014°02'0 0.7
2017-Dec-12 09:29N 67°10' E 014°01'1 3.0
2017-Dec-12 09:00N 67°12' E 014°03'1 1.3
2017-Dec-12 08:13N 67°13' E 014°04'0 0.3
2017-Dec-12 07:52N 67°13' E 014°04'0 0.2
2017-Dec-12 07:31N 67°13' E 014°04'4 7.2
2017-Dec-12 07:00N 67°09' E 014°01'2 0.1
2017-Dec-11 17:03N 67°08' E 013°58'0 4.2
2017-Dec-11 17:00N 67°08' E 013°58'2 2.3
2017-Dec-11 16:05N 67°06' E 014°00'1 7.3
2017-Dec-11 16:00N 67°06' E 013°59'4 8.0
2017-Dec-11 15:30N 67°06' E 013°49'1 1.2
2017-Dec-11 14:29N 67°07' E 013°46'3 4.8
2017-Dec-11 13:57N 67°08' E 013°52'0 0.3
2017-Dec-11 13:27N 67°08' E 013°52'3 7.0
2017-Dec-11 13:00N 67°10' E 013°58'2 3.0
2017-Dec-11 12:27N 67°10' E 014°02'0 1.1
2017-Dec-11 12:00N 67°10' E 014°02'0 0.4
2017-Dec-11 11:25N 67°10' E 014°01'0 0.5
2017-Dec-11 11:00N 67°11' E 014°01'1 2.6
2017-Dec-11 10:30N 67°12' E 014°02'2 3.4
2017-Dec-11 09:56N 67°11' E 013°58'0 0.1
2017-Dec-11 09:30N 67°11' E 013°58'4 7.6
2017-Dec-11 09:00N 67°13' E 014°07'4 8.4
2017-Dec-11 08:30N 67°15' E 014°15'3 6.2
2017-Dec-11 07:59N 67°17' E 014°22'0 0.0
2017-Dec-11 07:29N 67°17' E 014°22'0 0.0
2017-Dec-11 06:59N 67°17' E 014°22'1 3.0
2017-Dec-11 06:30N 67°16' E 014°19'4 7.9
2017-Dec-11 06:00N 67°14' E 014°11'4 8.6
2017-Dec-11 05:30N 67°10' E 014°04'4 2.3
2017-Dec-11 03:54N 67°08' E 013°58'0 0.0
2017-Dec-11 03:30N 67°08' E 013°58'0 0.0
2017-Dec-11 03:00N 67°08' E 013°58'0 0.0
2017-Dec-11 02:30N 67°08' E 013°58'0 0.0
2017-Dec-10 16:12N 67°08' E 013°58'0 0.0
2017-Dec-10 13:52N 67°08' E 013°58'2 6.1
2017-Dec-10 13:30N 67°08' E 013°52'2 2.8
2017-Dec-10 12:38N 67°07' E 013°46'0 3.8
2017-Dec-10 12:30N 67°07' E 013°47'2 2.9
2017-Dec-10 11:48N 67°08' E 013°52'2 5.3
2017-Dec-10 11:30N 67°09' E 013°55'3 6.1
2017-Dec-10 11:00N 67°10' E 014°02'0 0.5
2017-Dec-10 10:29N 67°10' E 014°03'1 1.1
2017-Dec-10 09:55N 67°10' E 014°01'0 0.2
2017-Dec-10 09:29N 67°11' E 014°01'1 2.1
2017-Dec-10 09:00N 67°12' E 014°01'1 2.9
2017-Dec-10 08:29N 67°13' E 014°04'0 0.2
2017-Dec-10 07:56N 67°12' E 014°04'0 0.1
2017-Dec-10 07:30N 67°12' E 014°04'4 8.5
2017-Dec-10 07:00N 67°09' E 014°00'1 2.4
2017-Dec-10 06:29N 67°08' E 013°58'0 0.0
2017-Dec-10 02:26N 67°08' E 013°58'0 0.0
2017-Dec-09 18:53N 67°08' E 013°58'0 0.0
2017-Dec-09 18:29N 67°08' E 013°58'0 0.0
2017-Dec-09 17:59N 67°08' E 013°58'0 0.0
2017-Dec-09 14:37N 67°08' E 013°58'1 3.0
2017-Dec-09 14:25N 67°08' E 013°58'2 4.8
2017-Dec-09 14:00N 67°07' E 013°54'3 5.9
2017-Dec-09 13:26N 67°07' E 013°46'0 0.3
2017-Dec-09 12:58N 67°07' E 013°46'2 4.3
2017-Dec-09 12:23N 67°08' E 013°51'0 0.3
2017-Dec-09 11:55N 67°08' E 013°52'3 7.0
2017-Dec-09 11:29N 67°10' E 013°57'2 3.5
2017-Dec-09 10:57N 67°10' E 014°02'0 0.3
2017-Dec-09 10:31N 67°10' E 014°02'1 1.1
2017-Dec-09 09:59N 67°10' E 014°01'1 2.8
2017-Dec-09 09:30N 67°12' E 014°03'1 1.3
2017-Dec-09 09:01N 67°12' E 014°01'2 1.3
2017-Dec-09 07:48N 67°11' E 013°58'0 1.0
2017-Dec-09 07:30N 67°10' E 013°58'3 5.3
2017-Dec-09 07:00N 67°08' E 013°58'0 0.2
2017-Dec-09 06:30N 67°08' E 013°58'0 0.0
2017-Dec-09 06:00N 67°08' E 013°58'0 0.0
2017-Dec-09 04:39N 67°08' E 013°58'0 0.0
2017-Dec-09 04:18N 67°08' E 013°58'0 0.0
2017-Dec-09 03:48N 67°08' E 013°58'0 0.0
2017-Dec-09 03:24N 67°08' E 013°58'0 0.0
2017-Dec-09 02:54N 67°08' E 013°58'0 0.0
2017-Dec-09 02:06N 67°08' E 013°58'0 0.0
2017-Dec-09 02:00N 67°08' E 013°58'0 0.0
2017-Dec-09 01:30N 67°08' E 013°58'0 0.0
2017-Dec-09 01:00N 67°08' E 013°58'0 0.0
2017-Dec-09 00:24N 67°08' E 013°58'0 0.0
2017-Dec-09 00:00N 67°08' E 013°58'0 0.0
2017-Dec-08 23:24N 67°08' E 013°58'0 0.0
2017-Dec-08 23:00N 67°08' E 013°58'0 0.0
2017-Dec-08 22:30N 67°08' E 013°58'0 0.0
2017-Dec-08 22:00N 67°08' E 013°58'0 0.0
2017-Dec-08 21:30N 67°08' E 013°58'0 0.0
2017-Dec-08 21:00N 67°08' E 013°58'0 0.0
2017-Dec-08 20:30N 67°08' E 013°58'0 0.0
2017-Dec-08 19:48N 67°08' E 013°58'0 0.0
2017-Dec-08 19:30N 67°08' E 013°58'0 0.0
2017-Dec-08 19:00N 67°08' E 013°58'0 0.0
2017-Dec-08 18:30N 67°08' E 013°58'0 0.0
2017-Dec-08 18:00N 67°08' E 013°58'1 1.1
2017-Dec-08 17:22N 67°08' E 013°59'2 3.8
2017-Dec-08 16:49N 67°06' E 014°01'2 6.6
2017-Dec-08 16:30N 67°06' E 013°55'4 7.8
2017-Dec-08 16:00N 67°07' E 013°46'0 0.4
2017-Dec-08 15:27N 67°07' E 013°46'2 5.4
2017-Dec-08 15:00N 67°08' E 013°52'0 0.3
2017-Dec-08 14:27N 67°08' E 013°52'2 3.4
2017-Dec-08 13:59N 67°09' E 013°55'3 6.9
2017-Dec-08 13:31N 67°10' E 014°03'0 0.2
2017-Dec-08 12:59N 67°10' E 014°02'0 0.8
2017-Dec-08 12:24N 67°10' E 014°01'0 0.5
2017-Dec-08 12:00N 67°11' E 014°01'1 1.7
2017-Dec-08 11:27N 67°11' E 013°59'0 0.3
2017-Dec-08 10:57N 67°11' E 013°59'0 0.6
2017-Dec-08 10:30N 67°11' E 013°58'3 5.0
2017-Dec-08 10:00N 67°08' E 013°60'1 1.7
2017-Dec-08 09:26N 67°08' E 013°58'0 0.0
2017-Dec-08 08:56N 67°08' E 013°58'0 0.0
2017-Dec-08 08:26N 67°08' E 013°58'0 0.0
2017-Dec-08 07:56N 67°08' E 013°58'0 0.0
2017-Dec-08 07:26N 67°08' E 013°58'0 0.0
2017-Dec-08 06:50N 67°08' E 013°58'0 0.0
2017-Dec-08 06:26N 67°08' E 013°58'0 0.0
2017-Dec-08 05:38N 67°08' E 013°58'0 0.0
2017-Dec-08 03:23N 67°08' E 013°58'0 0.0
2017-Dec-08 02:47N 67°08' E 013°58'0 0.0
2017-Dec-07 22:32N 67°08' E 013°58'0 0.0
2017-Dec-07 21:41N 67°08' E 013°58'  

Dump ship's entire track history